Time;durP1;ratioP1;P1;durP2;ratioP2;P2;SDS_P1;SDS_P2;PMS_P1;PMS_P2;Temp;Humidity;BMP_temperature;BMP_pressure;BME280_temperature;BME280_humidity;BME280_pressure;Samples;Min_cycle;Max_cycle;Signal;HPM_P1;HPM_P2
2021/07/06 00:01:00;;;;;;;2.10;1.40;;;19.50;99.90;;;;;;5117872;27;20151;-70
2021/07/06 00:03:26;;;;;;;4.10;1.88;;;19.50;99.90;;;;;;5118213;27;20055;-71
2021/07/06 00:05:52;;;;;;;1.73;1.20;;;19.40;99.90;;;;;;5117618;27;20039;-71
2021/07/06 00:08:17;;;;;;;5.28;1.75;;;19.40;99.90;;;;;;5117697;27;20028;-71
2021/07/06 00:10:43;;;;;;;8.60;1.42;;;19.40;99.90;;;;;;5117656;27;20299;-71
2021/07/06 00:13:09;;;;;;;3.90;1.55;;;19.40;99.90;;;;;;5117564;27;20106;-71
2021/07/06 00:15:34;;;;;;;2.40;1.40;;;19.50;99.90;;;;;;5116498;27;20445;-71
2021/07/06 00:18:01;;;;;;;4.80;1.55;;;19.50;99.90;;;;;;5116937;28;20024;-71
2021/07/06 00:20:28;;;;;;;1.95;1.58;;;19.50;99.90;;;;;;5117644;27;20051;-70
2021/07/06 00:22:58;;;;;;;2.33;1.73;;;19.50;99.90;;;;;;5117442;27;20105;-72
2021/07/06 00:25:25;;;;;;;2.83;1.33;;;19.40;99.90;;;;;;5117468;27;20123;-72
2021/07/06 00:27:53;;;;;;;3.88;1.40;;;19.40;99.90;;;;;;5117704;27;20458;-71
2021/07/06 00:30:19;;;;;;;5.10;1.80;;;19.40;99.90;;;;;;5117969;27;20057;-71
2021/07/06 00:32:45;;;;;;;2.30;1.40;;;19.40;99.90;;;;;;5117582;27;20027;-72
2021/07/06 00:35:11;;;;;;;4.90;1.15;;;19.40;99.90;;;;;;5117354;27;20046;-72
2021/07/06 00:37:36;;;;;;;3.20;1.15;;;19.50;99.90;;;;;;5117320;27;20385;-72
2021/07/06 00:40:04;;;;;;;3.22;1.58;;;19.50;99.90;;;;;;5116224;28;20516;-72
2021/07/06 00:42:29;;;;;;;3.35;1.70;;;19.50;99.90;;;;;;5117416;27;20072;-72
2021/07/06 00:44:55;;;;;;;6.32;1.33;;;19.40;99.90;;;;;;5117599;27;20027;-71
2021/07/06 00:47:36;;;;;;;7.85;1.63;;;19.50;99.90;;;;;;5117574;27;20031;-71
2021/07/06 00:50:08;;;;;;;5.47;1.75;;;19.50;99.90;;;;;;5117664;27;20513;-71
2021/07/06 00:52:34;;;;;;;13.82;2.78;;;19.50;99.90;;;;;;5117255;27;20387;-72
2021/07/06 00:54:59;;;;;;;6.10;1.50;;;19.50;99.90;;;;;;5117235;27;20036;-70
2021/07/06 00:57:31;;;;;;;3.33;1.20;;;19.40;99.90;;;;;;5117206;27;20028;-71
2021/07/06 01:00:05;;;;;;;2.33;1.90;;;19.40;99.90;;;;;;5113558;28;20054;-71
2021/07/06 01:02:32;;;;;;;1.42;1.25;;;19.50;99.90;;;;;;5114039;27;20114;-71
2021/07/06 01:04:57;;;;;;;4.32;1.50;;;19.40;99.90;;;;;;5112846;28;20038;-70
2021/07/06 01:07:23;;;;;;;1.73;1.50;;;19.50;99.90;;;;;;5112743;28;20032;-71
2021/07/06 01:09:49;;;;;;;2.85;1.58;;;19.40;99.90;;;;;;5113913;28;20495;-71
2021/07/06 01:12:15;;;;;;;3.80;1.45;;;19.50;99.90;;;;;;5114308;28;20103;-71
2021/07/06 01:14:41;;;;;;;4.47;1.70;;;19.50;99.90;;;;;;5113862;28;20151;-72
2021/07/06 01:17:08;;;;;;;2.58;1.23;;;19.40;99.90;;;;;;5113718;28;20047;-71
2021/07/06 01:19:34;;;;;;;8.23;2.08;;;19.50;99.90;;;;;;5113878;28;20318;-72
2021/07/06 01:22:07;;;;;;;4.78;1.48;;;19.50;99.90;;;;;;5113381;28;20042;-72
2021/07/06 01:24:36;;;;;;;3.00;1.50;;;19.50;99.90;;;;;;5113300;28;20031;-71
2021/07/06 01:27:02;;;;;;;1.92;1.42;;;19.50;99.90;;;;;;5114138;27;20036;-71
2021/07/06 01:29:30;;;;;;;4.25;1.23;;;19.50;99.90;;;;;;5112311;28;20031;-71
2021/07/06 01:31:56;;;;;;;5.78;1.38;;;19.50;99.90;;;;;;5112071;28;20035;-71
2021/07/06 01:34:21;;;;;;;7.80;1.40;;;19.60;99.90;;;;;;5113244;27;20035;-70
2021/07/06 01:36:47;;;;;;;3.85;1.42;;;19.60;99.90;;;;;;5130023;27;20115;-72
2021/07/06 01:39:20;;;;;;;10.43;1.60;;;19.60;99.90;;;;;;5134073;27;20043;-71
2021/07/06 01:41:46;;;;;;;3.58;1.30;;;19.60;99.90;;;;;;5133582;27;20042;-72
2021/07/06 01:44:20;;;;;;;6.00;1.52;;;19.60;99.90;;;;;;5133978;27;20031;-71
2021/07/06 01:46:46;;;;;;;5.50;1.40;;;19.60;99.90;;;;;;5133807;27;20087;-70
2021/07/06 01:49:13;;;;;;;2.88;1.40;;;19.60;99.90;;;;;;5133746;27;20035;-71
2021/07/06 01:51:40;;;;;;;2.67;1.50;;;19.50;99.90;;;;;;5133606;27;20460;-71
2021/07/06 01:54:06;;;;;;;2.45;1.35;;;19.50;99.90;;;;;;5133887;27;20064;-71
2021/07/06 01:56:36;;;;;;;2.58;1.23;;;19.50;99.90;;;;;;5133495;27;20031;-71
2021/07/06 01:59:02;;;;;;;2.35;1.27;;;19.50;99.90;;;;;;5133361;27;20042;-72
2021/07/06 02:01:27;;;;;;;2.40;1.30;;;19.50;99.90;;;;;;5133475;27;20030;-70
2021/07/06 02:03:53;;;;;;;3.22;1.52;;;19.60;99.90;;;;;;5133138;27;20042;-72
2021/07/06 02:06:18;;;;;;;5.43;1.30;;;19.60;99.90;;;;;;5132828;27;20022;-71
2021/07/06 02:08:44;;;;;;;3.13;1.20;;;19.60;99.90;;;;;;5133202;27;20167;-72
2021/07/06 02:11:09;;;;;;;3.17;1.10;;;19.60;99.90;;;;;;5131717;27;20031;-73
2021/07/06 02:13:35;;;;;;;3.03;1.48;;;19.60;99.90;;;;;;5133181;27;20027;-71
2021/07/06 02:16:02;;;;;;;1.95;1.02;;;19.60;99.90;;;;;;5133033;27;20028;-71
2021/07/06 02:18:28;;;;;;;6.90;1.30;;;19.60;99.90;;;;;;5133477;27;20078;-71
2021/07/06 02:20:56;;;;;;;2.15;1.05;;;19.70;99.90;;;;;;5132797;27;20050;-71
2021/07/06 02:23:22;;;;;;;;;;;19.60;99.90;;;;;;5133533;27;20035;-72
2021/07/06 02:25:48;;;;;;;0.98;0.85;;;19.60;99.90;;;;;;5133185;27;19911;-71
2021/07/06 02:28:14;;;;;;;7.97;1.40;;;19.70;99.90;;;;;;5132737;27;20131;-70
2021/07/06 02:30:40;;;;;;;3.70;1.00;;;19.60;99.90;;;;;;5131721;27;20026;-71
2021/07/06 02:33:06;;;;;;;1.80;0.90;;;19.70;99.90;;;;;;5133172;27;20460;-70
2021/07/06 02:35:31;;;;;;;5.00;1.02;;;19.70;99.90;;;;;;5131799;27;20087;-71
2021/07/06 02:37:59;;;;;;;3.25;0.90;;;19.70;99.90;;;;;;5132789;27;20031;-72
2021/07/06 02:40:25;;;;;;;3.03;1.17;;;19.70;99.90;;;;;;5132569;27;20055;-71
2021/07/06 02:42:51;;;;;;;3.38;1.13;;;19.70;99.90;;;;;;5132672;27;20027;-72
2021/07/06 02:45:17;;;;;;;4.57;0.90;;;19.70;99.90;;;;;;5133083;27;20151;-70
2021/07/06 02:47:44;;;;;;;0.98;0.88;;;19.70;99.90;;;;;;5132554;27;20129;-71
2021/07/06 02:50:11;;;;;;;3.20;1.10;;;19.70;99.90;;;;;;5132549;27;20031;-72
2021/07/06 02:52:37;;;;;;;1.48;0.90;;;19.70;99.90;;;;;;5132537;27;20041;-72
2021/07/06 02:55:05;;;;;;;1.38;1.00;;;19.70;99.90;;;;;;5132522;27;20050;-70
2021/07/06 02:57:37;;;;;;;3.03;0.93;;;19.70;99.90;;;;;;5132796;27;20011;-72
2021/07/06 03:00:07;;;;;;;3.47;1.00;;;19.70;99.90;;;;;;5131657;27;20423;-72
2021/07/06 03:02:33;;;;;;;1.17;0.85;;;19.70;99.90;;;;;;5132376;27;20093;-72
2021/07/06 03:04:58;;;;;;;4.20;1.17;;;19.70;99.90;;;;;;5132274;27;20476;-72
2021/07/06 03:07:24;;;;;;;9.15;0.90;;;19.60;99.90;;;;;;5131145;27;20130;-72
2021/07/06 03:09:49;;;;;;;2.15;1.13;;;19.70;99.90;;;;;;5132289;27;20113;-72
2021/07/06 03:12:15;;;;;;;4.90;1.00;;;19.70;99.90;;;;;;5132320;27;20058;-72
2021/07/06 03:14:41;;;;;;;5.65;0.73;;;19.60;99.90;;;;;;5131816;27;20050;-72
2021/07/06 03:17:06;;;;;;;2.03;0.90;;;19.60;99.90;;;;;;5131955;27;20031;-72
2021/07/06 03:19:32;;;;;;;6.80;0.90;;;19.60;99.90;;;;;;5131919;27;20092;-71
2021/07/06 03:21:57;;;;;;;2.00;0.73;;;19.50;99.90;;;;;;5131316;27;20038;-71
2021/07/06 03:24:23;;;;;;;2.78;1.00;;;19.50;99.90;;;;;;5132240;27;20019;-72
2021/07/06 03:26:49;;;;;;;2.42;1.02;;;19.50;99.90;;;;;;5131937;27;20019;-72
2021/07/06 03:29:14;;;;;;;3.33;1.05;;;19.50;99.90;;;;;;5131840;27;20473;-71
2021/07/06 03:31:40;;;;;;;1.48;1.02;;;19.60;99.90;;;;;;5131896;27;20128;-72
2021/07/06 03:34:05;;;;;;;1.90;0.90;;;19.50;99.90;;;;;;5131908;27;20027;-71
2021/07/06 03:36:31;;;;;;;2.25;1.23;;;19.50;99.90;;;;;;5131620;27;20027;-73
2021/07/06 03:38:56;;;;;;;9.23;1.00;;;19.50;99.90;;;;;;5131933;27;20126;-72
2021/07/06 03:41:22;;;;;;;1.70;0.88;;;19.50;99.90;;;;;;5131871;27;20106;-72
2021/07/06 03:43:47;;;;;;;1.13;0.93;;;19.50;99.90;;;;;;5131623;27;20042;-72
2021/07/06 03:46:13;;;;;;;2.05;1.20;;;19.50;99.90;;;;;;5131593;27;20106;-73
2021/07/06 03:48:38;;;;;;;6.63;1.05;;;19.50;99.90;;;;;;5130315;27;20023;-73
2021/07/06 03:51:04;;;;;;;1.60;0.80;;;19.50;99.90;;;;;;5130690;27;20061;-73
2021/07/06 03:53:30;;;;;;;5.82;1.08;;;19.50;99.90;;;;;;5131417;27;20031;-72
2021/07/06 03:55:55;;;;;;;5.28;1.00;;;19.50;99.90;;;;;;5131009;27;20041;-72
2021/07/06 03:58:21;;;;;;;2.28;0.95;;;19.50;99.90;;;;;;5131562;27;20126;-72
2021/07/06 04:00:46;;;;;;;0.80;0.80;;;19.50;99.90;;;;;;5131242;27;20045;-73
2021/07/06 04:03:12;;;;;;;3.70;0.93;;;19.50;99.90;;;;;;5130654;27;20062;-73
2021/07/06 04:05:38;;;;;;;3.72;1.05;;;19.50;99.90;;;;;;5131419;27;20465;-72
2021/07/06 04:08:04;;;;;;;2.03;0.80;;;19.40;99.90;;;;;;5131411;27;20024;-73
2021/07/06 04:10:30;;;;;;;3.83;1.08;;;19.50;99.90;;;;;;5131651;27;20027;-73
2021/07/06 04:12:55;;;;;;;3.42;1.15;;;19.50;99.90;;;;;;5131115;27;20027;-72
2021/07/06 04:15:21;;;;;;;1.90;0.82;;;19.40;99.90;;;;;;5130853;28;20062;-72
2021/07/06 04:17:48;;;;;;;1.30;1.10;;;19.40;99.90;;;;;;5131665;27;20080;-73
2021/07/06 04:20:15;;;;;;;1.90;1.10;;;19.50;99.90;;;;;;5131277;27;20028;-72
2021/07/06 04:22:41;;;;;;;2.17;0.90;;;19.50;99.90;;;;;;5131537;27;20057;-72
2021/07/06 04:25:08;;;;;;;3.47;1.13;;;19.50;99.90;;;;;;5131230;27;20091;-72
2021/07/06 04:27:34;;;;;;;1.80;1.08;;;19.50;99.90;;;;;;5131074;27;20084;-73
2021/07/06 04:29:59;;;;;;;3.47;1.00;;;19.50;99.90;;;;;;5131578;27;20030;-72
2021/07/06 04:32:25;;;;;;;5.07;0.85;;;19.50;99.90;;;;;;5130295;27;20027;-72
2021/07/06 04:34:51;;;;;;;2.50;0.85;;;19.60;99.90;;;;;;5134377;27;20470;-73
2021/07/06 04:37:17;;;;;;;2.17;0.98;;;19.60;99.90;;;;;;5135055;27;20073;-73
2021/07/06 04:39:44;;;;;;;1.98;0.90;;;19.60;99.90;;;;;;5134593;27;20043;-72
2021/07/06 04:42:12;;;;;;;5.18;0.85;;;19.70;99.90;;;;;;5135449;27;20453;-73
2021/07/06 04:44:38;;;;;;;3.50;1.17;;;19.70;99.90;;;;;;5134920;27;20402;-72
2021/07/06 04:47:04;;;;;;;4.68;0.90;;;19.70;99.90;;;;;;5134793;27;20101;-72
2021/07/06 04:49:29;;;;;;;1.45;0.90;;;19.80;99.90;;;;;;5134791;27;20019;-72
2021/07/06 04:51:56;;;;;;;2.55;1.35;;;19.80;99.90;;;;;;5134739;27;20581;-73
2021/07/06 04:54:24;;;;;;;2.22;0.90;;;19.90;99.90;;;;;;5135154;27;20072;-72
2021/07/06 04:56:51;;;;;;;2.42;1.02;;;19.80;99.90;;;;;;5134889;27;20050;-73
2021/07/06 04:59:18;;;;;;;3.93;1.20;;;19.90;99.90;;;;;;5134650;27;20519;-72
2021/07/06 05:01:44;;;;;;;1.23;0.80;;;19.90;99.90;;;;;;5134607;27;20039;-72
2021/07/06 05:04:09;;;;;;;3.00;0.80;;;20.00;99.90;;;;;;5133467;27;20015;-71
2021/07/06 05:06:36;;;;;;;4.30;1.02;;;20.10;99.90;;;;;;5134624;27;20031;-72
2021/07/06 05:09:02;;;;;;;2.40;1.00;;;20.10;99.90;;;;;;5135340;27;20023;-71
2021/07/06 05:11:27;;;;;;;6.35;1.13;;;20.10;99.90;;;;;;5134274;27;20084;-72
2021/07/06 05:13:53;;;;;;;1.70;1.17;;;20.10;99.90;;;;;;5134186;27;20032;-73
2021/07/06 05:16:18;;;;;;;4.68;1.30;;;20.10;99.90;;;;;;5134039;27;20140;-72
2021/07/06 05:18:44;;;;;;;2.33;1.00;;;20.10;99.90;;;;;;5133963;27;20537;-72
2021/07/06 05:21:09;;;;;;;4.93;1.20;;;20.10;99.90;;;;;;5134562;27;20023;-73
2021/07/06 05:23:35;;;;;;;2.22;1.00;;;20.10;99.90;;;;;;5134095;27;20034;-73
2021/07/06 05:26:01;;;;;;;3.50;1.45;;;20.20;99.90;;;;;;5134269;27;20378;-72
2021/07/06 05:28:28;;;;;;;3.63;1.08;;;20.20;99.90;;;;;;5134049;27;20031;-72
2021/07/06 05:30:53;;;;;;;1.90;1.10;;;20.30;99.90;;;;;;5134012;27;20393;-77
2021/07/06 05:33:19;;;;;;;1.55;1.10;;;20.40;99.90;;;;;;5134151;27;20034;-78
2021/07/06 05:35:45;;;;;;;4.63;1.00;;;20.50;99.90;;;;;;5132638;27;20035;-78
2021/07/06 05:38:10;;;;;;;1.27;1.00;;;20.50;99.90;;;;;;5133670;27;20081;-77
2021/07/06 05:40:39;;;;;;;3.85;1.25;;;20.60;99.90;;;;;;5133454;27;20047;-76
2021/07/06 05:43:06;;;;;;;2.53;1.15;;;20.70;99.90;;;;;;5133533;27;20034;-77
2021/07/06 05:45:33;;;;;;;2.47;1.10;;;20.70;99.90;;;;;;5132180;27;20375;-72
2021/07/06 05:47:59;;;;;;;11.23;1.73;;;20.70;99.90;;;;;;5132955;27;20023;-74
2021/07/06 05:50:25;;;;;;;7.55;1.60;;;20.70;99.90;;;;;;5133631;27;20371;-73
2021/07/06 05:52:50;;;;;;;9.00;2.05;;;20.80;99.90;;;;;;5133159;27;20031;-72
2021/07/06 05:55:16;;;;;;;5.90;1.98;;;20.90;99.90;;;;;;5133329;27;20126;-74
2021/07/06 05:57:43;;;;;;;4.43;1.38;;;21.00;99.90;;;;;;5133471;27;20216;-74
2021/07/06 06:00:11;;;;;;;3.33;1.67;;;21.00;99.90;;;;;;5133631;27;20098;-70
2021/07/06 06:02:37;;;;;;;7.47;1.92;;;21.00;99.90;;;;;;5133282;27;20144;-73
2021/07/06 06:05:05;;;;;;;3.42;1.10;;;21.10;99.90;;;;;;5120867;27;20078;-72
2021/07/06 06:07:35;;;;;;;2.03;1.25;;;21.10;99.90;;;;;;5112645;28;20024;-73
2021/07/06 06:10:01;;;;;;;2.30;0.98;;;21.20;99.90;;;;;;5112728;28;20027;-71
2021/07/06 06:12:26;;;;;;;3.97;1.15;;;21.30;99.90;;;;;;5113045;28;20028;-71
2021/07/06 06:14:52;;;;;;;3.78;1.10;;;21.40;99.90;;;;;;5112440;28;20036;-71
2021/07/06 06:17:18;;;;;;;1.83;1.20;;;21.40;99.90;;;;;;5112554;28;20573;-71
2021/07/06 06:19:44;;;;;;;3.53;1.33;;;21.50;99.90;;;;;;5112529;28;20118;-71
2021/07/06 06:22:09;;;;;;;2.33;0.95;;;21.50;99.90;;;;;;5112689;28;20111;-72
2021/07/06 06:24:35;;;;;;;1.48;0.88;;;21.60;99.90;;;;;;5112243;28;20023;-72
2021/07/06 06:27:01;;;;;;;3.35;1.08;;;21.60;99.90;;;;;;5112799;28;20008;-71
2021/07/06 06:29:26;;;;;;;1.35;1.00;;;21.60;99.90;;;;;;5111432;28;20031;-71
2021/07/06 06:31:52;;;;;;;5.82;2.38;;;21.60;99.90;;;;;;5112176;28;20426;-71
2021/07/06 06:34:18;;;;;;;3.72;2.00;;;21.60;99.90;;;;;;5112272;28;20046;-71
2021/07/06 06:36:43;;;;;;;5.05;1.20;;;21.60;99.90;;;;;;5112200;28;20058;-71
2021/07/06 06:39:09;;;;;;;1.70;0.95;;;21.70;99.90;;;;;;5112624;28;20118;-71
2021/07/06 06:41:34;;;;;;;5.05;1.10;;;21.80;99.90;;;;;;5111162;28;20103;-72
2021/07/06 06:44:00;;;;;;;4.28;1.40;;;21.90;99.90;;;;;;5112143;28;20091;-72
2021/07/06 06:46:27;;;;;;;4.80;1.27;;;22.00;99.80;;;;;;5111577;28;20032;-72
2021/07/06 06:48:53;;;;;;;8.75;1.83;;;21.90;99.70;;;;;;5110878;28;20035;-72
2021/07/06 06:51:18;;;;;;;4.22;1.50;;;22.00;99.80;;;;;;5112224;28;20023;-71
2021/07/06 06:53:45;;;;;;;6.60;1.50;;;22.10;99.80;;;;;;5111884;28;20035;-71
2021/07/06 06:56:11;;;;;;;6.35;1.08;;;22.10;99.40;;;;;;5111023;28;20061;-72
2021/07/06 06:58:36;;;;;;;1.13;0.75;;;22.10;99.40;;;;;;5111688;28;20043;-72
2021/07/06 07:01:02;;;;;;;2.05;0.98;;;22.20;99.60;;;;;;5111725;27;20443;-71
2021/07/06 07:03:28;;;;;;;4.30;1.20;;;22.20;99.50;;;;;;5111784;28;20103;-71
2021/07/06 07:05:53;;;;;;;1.67;1.10;;;22.30;99.30;;;;;;5111691;28;20038;-71
2021/07/06 07:08:20;;;;;;;2.85;1.00;;;22.40;99.30;;;;;;5111414;28;20028;-73
2021/07/06 07:10:47;;;;;;;2.60;1.17;;;22.40;98.90;;;;;;5111432;27;20046;-71
2021/07/06 07:13:13;;;;;;;3.00;1.00;;;22.50;98.90;;;;;;5110120;28;20653;-71
2021/07/06 07:15:39;;;;;;;5.10;1.42;;;22.60;98.70;;;;;;5112125;28;20098;-70
2021/07/06 07:18:05;;;;;;;2.25;1.20;;;22.70;98.60;;;;;;5112025;28;20051;-72
2021/07/06 07:20:31;;;;;;;2.08;1.00;;;22.70;98.50;;;;;;5111405;28;20143;-71
2021/07/06 07:22:57;;;;;;;7.10;1.40;;;22.80;98.70;;;;;;5111196;28;20073;-70
2021/07/06 07:25:23;;;;;;;3.47;1.15;;;22.90;98.80;;;;;;5111591;27;20082;-72
2021/07/06 07:27:50;;;;;;;4.43;1.77;;;22.90;98.60;;;;;;5110463;28;20050;-72
2021/07/06 07:30:18;;;;;;;2.22;1.17;;;23.00;98.60;;;;;;5111518;28;20019;-72
2021/07/06 07:32:44;;;;;;;3.53;1.02;;;23.10;98.70;;;;;;5109794;28;20027;-72
2021/07/06 07:35:11;;;;;;;4.25;1.98;;;23.10;98.70;;;;;;5109978;28;20361;-72
2021/07/06 07:37:37;;;;;;;5.07;2.05;;;23.10;98.50;;;;;;5109861;28;20542;-72
2021/07/06 07:40:04;;;;;;;3.58;1.73;;;23.30;98.40;;;;;;5110848;28;20070;-70
2021/07/06 07:42:31;;;;;;;5.35;1.33;;;23.60;98.30;;;;;;5111489;28;20019;-73
2021/07/06 07:44:56;;;;;;;3.03;0.95;;;23.90;98.30;;;;;;5110450;28;20468;-72
2021/07/06 07:47:22;;;;;;;1.38;0.90;;;24.40;97.80;;;;;;5109783;28;20052;-73
2021/07/06 07:49:48;;;;;;;3.35;1.10;;;24.70;97.40;;;;;;5110847;28;20103;-72
2021/07/06 07:52:13;;;;;;;3.47;1.00;;;24.80;96.70;;;;;;5110894;28;20461;-72
2021/07/06 07:54:39;;;;;;;4.70;1.08;;;24.80;96.30;;;;;;5110878;28;20032;-73
2021/07/06 07:57:09;;;;;;;3.22;1.05;;;24.80;96.00;;;;;;5111547;28;20027;-70
2021/07/06 07:59:35;;;;;;;2.72;0.98;;;24.80;96.10;;;;;;5110910;28;20024;-72
2021/07/06 08:02:01;;;;;;;1.98;1.00;;;24.80;96.00;;;;;;5110862;28;20801;-72
2021/07/06 08:04:27;;;;;;;2.90;1.10;;;24.70;95.80;;;;;;5110803;28;20047;-72
2021/07/06 08:06:52;;;;;;;3.65;1.45;;;24.70;95.90;;;;;;5111077;28;20088;-72
2021/07/06 08:09:18;;;;;;;2.97;1.27;;;24.70;96.00;;;;;;5115527;28;20070;-71
2021/07/06 08:11:44;;;;;;;1.20;1.10;;;24.60;96.30;;;;;;5114956;27;20088;-70
2021/07/06 08:14:09;;;;;;;3.20;1.25;;;24.60;96.30;;;;;;5113964;28;20028;-71
2021/07/06 08:16:35;;;;;;;4.38;2.53;;;24.50;96.40;;;;;;5114861;28;20423;-71
2021/07/06 08:19:02;;;;;;;1.60;1.20;;;24.30;96.30;;;;;;5114664;28;20024;-71
2021/07/06 08:21:27;;;;;;;4.05;1.15;;;24.20;96.60;;;;;;5113750;28;20356;-72
2021/07/06 08:23:53;;;;;;;4.70;1.10;;;24.10;96.70;;;;;;5113401;28;20027;-72
2021/07/06 08:26:18;;;;;;;5.18;1.30;;;24.00;96.80;;;;;;5113490;28;20028;-72
2021/07/06 08:28:45;;;;;;;1.20;0.82;;;24.00;97.10;;;;;;5113692;28;20031;-71
2021/07/06 08:31:13;;;;;;;2.10;0.93;;;24.00;97.20;;;;;;5113606;28;20154;-72
2021/07/06 08:33:38;;;;;;;2.00;0.73;;;23.90;97.10;;;;;;5114749;28;20287;-72
2021/07/06 08:36:04;;;;;;;3.45;1.17;;;24.00;97.20;;;;;;5115078;28;20457;-72
2021/07/06 08:38:31;;;;;;;4.22;1.25;;;24.00;97.30;;;;;;5114214;27;20027;-71
2021/07/06 08:40:57;;;;;;;10.65;3.90;;;24.00;97.30;;;;;;5112846;28;20036;-71
2021/07/06 08:43:22;;;;;;;7.07;2.90;;;24.00;97.20;;;;;;5114155;27;20495;-71
2021/07/06 08:45:48;;;;;;;1.60;1.25;;;24.00;97.40;;;;;;5113859;28;20464;-72
2021/07/06 08:48:15;;;;;;;4.78;1.35;;;24.00;97.20;;;;;;5114382;28;20453;-72
2021/07/06 08:50:43;;;;;;;2.88;1.10;;;24.20;97.30;;;;;;5114375;27;20035;-72
2021/07/06 08:53:08;;;;;;;5.57;1.10;;;24.70;97.00;;;;;;5114233;28;20488;-72
2021/07/06 08:55:34;;;;;;;2.55;1.38;;;24.90;96.60;;;;;;5114178;28;20032;-72
2021/07/06 08:57:59;;;;;;;3.58;1.17;;;25.00;96.50;;;;;;5113879;28;20428;-73
2021/07/06 09:00:29;;;;;;;3.35;1.23;;;25.50;96.20;;;;;;5114322;27;20024;-75
2021/07/06 09:03:07;;;;;;;3.75;1.00;;;25.80;96.10;;;;;;5114342;28;20042;-75
2021/07/06 09:05:33;;;;;;;;;;;25.90;95.80;;;;;;5113184;28;20036;-75
2021/07/06 09:08:00;;;;;;;2.13;1.10;;;25.90;95.40;;;;;;5113609;27;20402;-75
2021/07/06 09:10:33;;;;;;;2.80;1.35;;;25.70;95.60;;;;;;5113866;28;20040;-75
2021/07/06 09:12:59;;;;;;;4.40;1.17;;;25.50;95.30;;;;;;5112412;28;20031;-74
2021/07/06 09:15:28;;;;;;;2.15;1.00;;;25.30;95.00;;;;;;5114182;28;20035;-73
2021/07/06 09:18:03;;;;;;;2.78;1.15;;;25.20;95.00;;;;;;5113652;28;20067;-73
2021/07/06 09:20:29;;;;;;;2.97;1.00;;;25.10;95.00;;;;;;5112828;28;20032;-73
2021/07/06 09:23:18;;;;;;;8.55;1.13;;;24.90;95.00;;;;;;5113770;28;20067;-73
2021/07/06 09:25:44;;;;;;;3.70;1.13;;;24.80;95.10;;;;;;5113429;28;20059;-74
2021/07/06 09:28:23;;;;;;;2.58;1.00;;;24.80;95.40;;;;;;5113533;27;20059;-73
2021/07/06 09:30:49;;;;;;;2.65;1.25;;;24.70;95.10;;;;;;5113346;28;20024;-74
2021/07/06 09:33:26;;;;;;;2.67;1.23;;;24.60;94.90;;;;;;5113604;28;20046;-73
2021/07/06 09:35:52;;;;;;;3.03;2.08;;;24.60;95.10;;;;;;5113279;28;20453;-73
2021/07/06 09:38:18;;;;;;;6.68;2.25;;;24.50;95.10;;;;;;5113277;28;20093;-75
2021/07/06 09:40:45;;;;;;;3.75;1.48;;;24.50;95.30;;;;;;5113108;28;20043;-74
2021/07/06 09:43:22;;;;;;;1.77;0.95;;;24.40;95.10;;;;;;5113094;28;20489;-74
2021/07/06 09:45:57;;;;;;;2.15;1.10;;;24.40;95.30;;;;;;5112695;28;20478;-73
2021/07/06 09:48:23;;;;;;;3.92;1.40;;;24.40;95.30;;;;;;5113232;28;20020;-74
2021/07/06 09:50:49;;;;;;;4.95;1.27;;;24.40;95.40;;;;;;5112423;28;20104;-74
2021/07/06 09:53:29;;;;;;;3.35;1.52;;;24.30;95.40;;;;;;5111688;28;20453;-74
2021/07/06 09:55:56;;;;;;;3.95;1.17;;;24.30;95.50;;;;;;5112468;28;20346;-73
2021/07/06 09:58:22;;;;;;;2.13;1.38;;;24.20;95.40;;;;;;5112703;27;20085;-73
2021/07/06 10:00:52;;;;;;;2.90;1.00;;;24.20;95.60;;;;;;5112714;28;20016;-73
2021/07/06 10:03:20;;;;;;;2.67;1.17;;;24.30;95.70;;;;;;5112352;28;20031;-73
2021/07/06 10:05:49;;;;;;;3.53;1.20;;;24.20;95.70;;;;;;5112738;27;20024;-74
2021/07/06 10:08:15;;;;;;;3.85;1.10;;;24.20;95.80;;;;;;5112754;28;20085;-73
2021/07/06 10:10:41;;;;;;;2.80;1.52;;;24.20;95.90;;;;;;5112420;28;20034;-73
2021/07/06 10:13:07;;;;;;;1.88;1.23;;;24.10;96.00;;;;;;5112450;28;20110;-73
2021/07/06 10:15:33;;;;;;;2.70;1.40;;;24.10;96.10;;;;;;5112348;28;20453;-73
2021/07/06 10:17:58;;;;;;;1.95;1.45;;;24.00;96.20;;;;;;5112014;28;20019;-72
2021/07/06 10:20:29;;;;;;;6.78;4.00;;;24.00;96.50;;;;;;5112532;28;20051;-72
2021/07/06 10:22:59;;;;;;;5.28;3.70;;;23.90;96.80;;;;;;5111415;28;20360;-73
2021/07/06 10:25:28;;;;;;;3.30;1.58;;;23.90;96.90;;;;;;5112322;28;20364;-73
2021/07/06 10:28:02;;;;;;;2.85;1.38;;;23.80;97.10;;;;;;5112245;28;20055;-73
2021/07/06 10:30:39;;;;;;;6.10;3.33;;;23.70;97.10;;;;;;5112043;27;20091;-73
2021/07/06 10:33:12;;;;;;;4.60;2.00;;;23.60;97.60;;;;;;5112080;28;20034;-72
2021/07/06 10:35:41;;;;;;;3.78;2.15;;;23.60;97.80;;;;;;5112173;28;20028;-72
2021/07/06 10:38:29;;;;;;;5.13;1.33;;;23.40;98.00;;;;;;5112338;28;20100;-73
2021/07/06 10:40:55;;;;;;;;;;;23.30;98.30;;;;;;5111120;28;20051;-71
2021/07/06 10:43:37;;;;;;;3.28;1.45;;;23.20;98.50;;;;;;5111980;28;19918;-75
2021/07/06 10:46:20;;;;;;;5.50;2.05;;;23.20;98.90;;;;;;5112154;28;20038;-70
2021/07/06 10:48:50;;;;;;;5.10;1.45;;;23.20;99.10;;;;;;5112301;28;20028;-71
2021/07/06 10:51:34;;;;;;;5.03;1.90;;;23.20;99.30;;;;;;5112410;28;20039;-74
2021/07/06 10:54:18;;;;;;;5.88;1.95;;;23.10;99.70;;;;;;5111725;28;20036;-71
2021/07/06 10:56:48;;;;;;;3.17;1.90;;;23.10;99.90;;;;;;5111784;28;20027;-71
2021/07/06 10:59:34;;;;;;;3.95;2.17;;;23.10;99.90;;;;;;5111627;28;20346;-71
2021/07/06 11:02:01;;;;;;;5.07;2.10;;;22.80;99.90;;;;;;5111894;28;20073;-71
2021/07/06 11:04:42;;;;;;;4.55;1.90;;;22.70;99.90;;;;;;5111929;28;20369;-70
2021/07/06 11:07:30;;;;;;;3.88;2.35;;;22.60;99.90;;;;;;5110761;28;20028;-71
2021/07/06 11:09:55;;;;;;;2.67;1.50;;;22.60;99.90;;;;;;5111902;28;20378;-71
2021/07/06 11:12:34;;;;;;;8.15;5.00;;;22.50;99.90;;;;;;5112038;28;20493;-71
2021/07/06 11:15:01;;;;;;;3.55;2.08;;;22.50;99.90;;;;;;5111523;28;20111;-70
2021/07/06 11:17:46;;;;;;;5.57;1.73;;;22.40;99.90;;;;;;5111620;28;20036;-70
2021/07/06 11:20:18;;;;;;;3.63;1.73;;;22.30;99.90;;;;;;5111451;28;20055;-72
2021/07/06 11:22:54;;;;;;;3.58;1.92;;;22.20;99.90;;;;;;5110154;28;20088;-71
2021/07/06 11:25:40;;;;;;;5.60;2.05;;;22.10;99.90;;;;;;5111233;28;20044;-71
2021/07/06 11:28:24;;;;;;;7.10;3.20;;;22.10;99.90;;;;;;5109768;28;20035;-70
2021/07/06 11:30:53;;;;;;;4.20;1.65;;;21.90;99.90;;;;;;5111349;28;20031;-70
2021/07/06 11:33:21;;;;;;;5.68;2.55;;;21.90;99.90;;;;;;5110724;28;20027;-71
2021/07/06 11:35:51;;;;;;;;;;;21.70;99.90;;;;;;5111733;28;20078;-71
2021/07/06 11:38:25;;;;;;;11.23;5.40;;;21.60;99.90;;;;;;5110368;28;19911;-71
2021/07/06 11:40:53;;;;;;;5.28;1.77;;;21.60;99.90;;;;;;5110856;28;20535;-70
2021/07/06 11:43:21;;;;;;;3.55;2.00;;;21.70;99.90;;;;;;5111036;28;20032;-70
2021/07/06 11:45:54;;;;;;;4.50;2.30;;;21.60;99.90;;;;;;5111275;28;20117;-70
2021/07/06 11:48:22;;;;;;;6.05;1.92;;;21.60;99.90;;;;;;5111699;28;20066;-71
2021/07/06 11:50:49;;;;;;;5.85;3.85;;;21.60;99.90;;;;;;5111134;28;20034;-72
2021/07/06 11:53:22;;;;;;;10.00;3.53;;;21.70;99.90;;;;;;5111218;28;20058;-72
2021/07/06 11:55:48;;;;;;;11.38;1.95;;;21.70;99.90;;;;;;5109847;28;20122;-71
2021/07/06 11:58:14;;;;;;;5.93;3.88;;;21.70;99.90;;;;;;5111133;28;20027;-72
2021/07/06 12:00:41;;;;;;;5.88;1.80;;;21.80;99.90;;;;;;5111142;28;20517;-78
2021/07/06 12:03:16;;;;;;;5.05;2.20;;;21.80;99.90;;;;;;5112021;28;20092;-74
2021/07/06 12:05:42;;;;;;;3.15;1.73;;;21.80;99.90;;;;;;5109745;28;20496;-76
2021/07/06 12:08:13;;;;;;;4.93;1.75;;;21.80;99.90;;;;;;5111333;28;20103;-75
2021/07/06 12:10:55;;;;;;;4.43;2.15;;;21.80;99.90;;;;;;5110094;28;20024;-74
2021/07/06 12:13:21;;;;;;;5.53;2.53;;;21.90;99.90;;;;;;5110930;28;20024;-75
2021/07/06 12:15:47;;;;;;;2.15;1.58;;;21.80;99.90;;;;;;5109890;28;20042;-75
2021/07/06 12:18:16;;;;;;;3.47;1.98;;;21.80;99.90;;;;;;5111056;28;20023;-76
2021/07/06 12:20:51;;;;;;;5.80;1.98;;;21.80;99.90;;;;;;5111086;28;20036;-75
2021/07/06 12:23:16;;;;;;;6.85;3.10;;;21.80;99.90;;;;;;5109260;28;20047;-75
2021/07/06 12:25:42;;;;;;;5.63;2.33;;;21.90;99.90;;;;;;5110353;28;20040;-75
2021/07/06 12:28:08;;;;;;;3.67;2.20;;;22.00;99.90;;;;;;5110420;28;20028;-76
2021/07/06 12:30:34;;;;;;;3.92;2.00;;;22.10;99.90;;;;;;5110593;28;20453;-76
2021/07/06 12:33:07;;;;;;;4.82;2.13;;;22.20;99.90;;;;;;5111550;28;20015;-76
2021/07/06 12:35:33;;;;;;;3.90;1.75;;;22.20;99.90;;;;;;5109695;28;20040;-76
2021/07/06 12:38:04;;;;;;;5.95;1.95;;;22.30;99.90;;;;;;5109646;28;20453;-76
2021/07/06 12:40:30;;;;;;;8.20;1.73;;;22.40;99.90;;;;;;5110024;28;20063;-75
2021/07/06 12:42:56;;;;;;;4.80;1.90;;;22.60;99.90;;;;;;5109134;28;20039;-76
2021/07/06 12:45:22;;;;;;;5.32;1.80;;;22.80;99.90;;;;;;5109776;28;20506;-76
2021/07/06 12:47:48;;;;;;;4.03;2.20;;;22.90;99.90;;;;;;5110469;28;20031;-75
2021/07/06 12:50:22;;;;;;;4.18;1.63;;;22.90;99.90;;;;;;5108909;28;20027;-75